sensor_id;sensor_type;location;lat;lon;timestamp;P1;durP1;ratioP1;P2;durP2;ratioP2
52708;SDS011;38606;52.986;6.980;2022-09-01T00:02:23;1.85;;;1.10;;
52708;SDS011;38606;52.986;6.980;2022-09-01T00:04:51;1.52;;;0.90;;
52708;SDS011;38606;52.986;6.980;2022-09-01T00:07:23;7.60;;;1.25;;
52708;SDS011;38606;52.986;6.980;2022-09-01T00:09:50;3.95;;;1.00;;
52708;SDS011;38606;52.986;6.980;2022-09-01T00:12:16;4.00;;;1.27;;
52708;SDS011;38606;52.986;6.980;2022-09-01T00:14:42;3.55;;;1.20;;
52708;SDS011;38606;52.986;6.980;2022-09-01T00:17:09;6.10;;;1.73;;
52708;SDS011;38606;52.986;6.980;2022-09-01T00:19:36;1.48;;;1.10;;
52708;SDS011;38606;52.986;6.980;2022-09-01T00:22:03;2.03;;;1.27;;
52708;SDS011;38606;52.986;6.980;2022-09-01T00:24:30;1.10;;;1.00;;
52708;SDS011;38606;52.986;6.980;2022-09-01T00:26:56;1.58;;;1.17;;
52708;SDS011;38606;52.986;6.980;2022-09-01T00:29:22;1.83;;;1.33;;
52708;SDS011;38606;52.986;6.980;2022-09-01T00:31:49;1.45;;;1.20;;
52708;SDS011;38606;52.986;6.980;2022-09-01T00:34:15;1.60;;;1.20;;
52708;SDS011;38606;52.986;6.980;2022-09-01T00:36:41;2.13;;;1.30;;
52708;SDS011;38606;52.986;6.980;2022-09-01T00:39:07;3.13;;;1.35;;
52708;SDS011;38606;52.986;6.980;2022-09-01T00:41:35;3.70;;;1.33;;
52708;SDS011;38606;52.986;6.980;2022-09-01T00:44:03;2.92;;;1.00;;
52708;SDS011;38606;52.986;6.980;2022-09-01T00:46:33;4.72;;;1.35;;
52708;SDS011;38606;52.986;6.980;2022-09-01T00:49:08;2.97;;;1.20;;
52708;SDS011;38606;52.986;6.980;2022-09-01T00:51:54;3.03;;;1.10;;
52708;SDS011;38606;52.986;6.980;2022-09-01T00:54:25;2.25;;;1.10;;
52708;SDS011;38606;52.986;6.980;2022-09-01T00:56:54;1.48;;;1.13;;
52708;SDS011;38606;52.986;6.980;2022-09-01T00:59:21;1.20;;;1.05;;
52708;SDS011;38606;52.986;6.980;2022-09-01T01:01:49;1.70;;;1.30;;
52708;SDS011;38606;52.986;6.980;2022-09-01T01:04:15;1.33;;;1.02;;
52708;SDS011;38606;52.986;6.980;2022-09-01T01:06:42;2.33;;;1.20;;
52708;SDS011;38606;52.986;6.980;2022-09-01T01:09:15;1.50;;;1.40;;
52708;SDS011;38606;52.986;6.980;2022-09-01T01:11:42;1.92;;;1.40;;
52708;SDS011;38606;52.986;6.980;2022-09-01T01:14:11;2.20;;;1.10;;
52708;SDS011;38606;52.986;6.980;2022-09-01T01:16:41;3.03;;;1.25;;
52708;SDS011;38606;52.986;6.980;2022-09-01T01:19:55;1.30;;;1.05;;
52708;SDS011;38606;52.986;6.980;2022-09-01T01:25:27;4.25;;;1.60;;
52708;SDS011;38606;52.986;6.980;2022-09-01T01:28:04;1.45;;;1.15;;
52708;SDS011;38606;52.986;6.980;2022-09-01T01:30:37;1.75;;;1.30;;
52708;SDS011;38606;52.986;6.980;2022-09-01T01:33:06;6.93;;;1.40;;
52708;SDS011;38606;52.986;6.980;2022-09-01T01:35:31;2.83;;;1.77;;
52708;SDS011;38606;52.986;6.980;2022-09-01T01:37:58;2.90;;;1.25;;
52708;SDS011;38606;52.986;6.980;2022-09-01T01:40:26;1.80;;;1.52;;
52708;SDS011;38606;52.986;6.980;2022-09-01T01:42:53;1.40;;;1.30;;
52708;SDS011;38606;52.986;6.980;2022-09-01T01:45:22;4.03;;;1.52;;
52708;SDS011;38606;52.986;6.980;2022-09-01T01:47:50;1.55;;;1.30;;
52708;SDS011;38606;52.986;6.980;2022-09-01T01:50:30;1.83;;;1.33;;
52708;SDS011;38606;52.986;6.980;2022-09-01T01:53:00;3.58;;;1.35;;
52708;SDS011;38606;52.986;6.980;2022-09-01T01:55:27;1.38;;;1.27;;
52708;SDS011;38606;52.986;6.980;2022-09-01T01:57:55;2.08;;;1.50;;
52708;SDS011;38606;52.986;6.980;2022-09-01T02:00:27;1.70;;;1.50;;
52708;SDS011;38606;52.986;6.980;2022-09-01T02:02:54;2.38;;;1.17;;
52708;SDS011;38606;52.986;6.980;2022-09-01T02:05:24;2.63;;;1.27;;
52708;SDS011;38606;52.986;6.980;2022-09-01T02:07:57;5.38;;;1.40;;
52708;SDS011;38606;52.986;6.980;2022-09-01T02:10:39;1.80;;;1.17;;
52708;SDS011;38606;52.986;6.980;2022-09-01T02:13:09;1.75;;;1.35;;
52708;SDS011;38606;52.986;6.980;2022-09-01T02:15:41;1.90;;;1.33;;
52708;SDS011;38606;52.986;6.980;2022-09-01T02:18:13;3.55;;;1.67;;
52708;SDS011;38606;52.986;6.980;2022-09-01T02:20:44;4.30;;;1.45;;
52708;SDS011;38606;52.986;6.980;2022-09-01T02:23:11;2.20;;;1.50;;
52708;SDS011;38606;52.986;6.980;2022-09-01T02:25:40;3.35;;;1.38;;
52708;SDS011;38606;52.986;6.980;2022-09-01T02:28:09;3.05;;;1.50;;
52708;SDS011;38606;52.986;6.980;2022-09-01T02:30:46;2.22;;;1.38;;
52708;SDS011;38606;52.986;6.980;2022-09-01T02:33:16;4.10;;;1.38;;
52708;SDS011;38606;52.986;6.980;2022-09-01T02:35:47;1.90;;;1.40;;
52708;SDS011;38606;52.986;6.980;2022-09-01T02:38:15;1.77;;;1.38;;
52708;SDS011;38606;52.986;6.980;2022-09-01T02:40:44;3.65;;;1.40;;
52708;SDS011;38606;52.986;6.980;2022-09-01T02:43:11;2.72;;;1.40;;
52708;SDS011;38606;52.986;6.980;2022-09-01T02:45:39;2.33;;;1.40;;
52708;SDS011;38606;52.986;6.980;2022-09-01T02:48:08;3.20;;;1.30;;
52708;SDS011;38606;52.986;6.980;2022-09-01T02:50:38;2.00;;;1.50;;
52708;SDS011;38606;52.986;6.980;2022-09-01T02:53:06;4.63;;;1.75;;
52708;SDS011;38606;52.986;6.980;2022-09-01T02:55:43;1.73;;;1.35;;
52708;SDS011;38606;52.986;6.980;2022-09-01T02:58:09;2.33;;;1.50;;
52708;SDS011;38606;52.986;6.980;2022-09-01T03:00:43;2.20;;;2.00;;
52708;SDS011;38606;52.986;6.980;2022-09-01T03:03:09;2.47;;;1.30;;
52708;SDS011;38606;52.986;6.980;2022-09-01T03:05:36;1.90;;;1.58;;
52708;SDS011;38606;52.986;6.980;2022-09-01T03:08:07;1.40;;;1.30;;
52708;SDS011;38606;52.986;6.980;2022-09-01T03:10:35;3.67;;;1.40;;
52708;SDS011;38606;52.986;6.980;2022-09-01T03:13:07;1.83;;;1.50;;
52708;SDS011;38606;52.986;6.980;2022-09-01T03:15:38;1.95;;;1.35;;
52708;SDS011;38606;52.986;6.980;2022-09-01T03:18:05;1.60;;;1.50;;
52708;SDS011;38606;52.986;6.980;2022-09-01T03:20:32;2.60;;;1.30;;
52708;SDS011;38606;52.986;6.980;2022-09-01T03:23:00;1.80;;;1.50;;
52708;SDS011;38606;52.986;6.980;2022-09-01T03:25:29;2.00;;;1.45;;
52708;SDS011;38606;52.986;6.980;2022-09-01T03:27:56;2.90;;;1.42;;
52708;SDS011;38606;52.986;6.980;2022-09-01T03:30:24;1.90;;;1.50;;
52708;SDS011;38606;52.986;6.980;2022-09-01T03:32:51;2.47;;;1.50;;
52708;SDS011;38606;52.986;6.980;2022-09-01T03:35:16;2.47;;;1.50;;
52708;SDS011;38606;52.986;6.980;2022-09-01T03:37:42;1.75;;;1.23;;
52708;SDS011;38606;52.986;6.980;2022-09-01T03:40:09;6.90;;;1.75;;
52708;SDS011;38606;52.986;6.980;2022-09-01T03:42:36;3.28;;;1.88;;
52708;SDS011;38606;52.986;6.980;2022-09-01T03:45:02;3.42;;;1.70;;
52708;SDS011;38606;52.986;6.980;2022-09-01T03:47:36;2.88;;;1.63;;
52708;SDS011;38606;52.986;6.980;2022-09-01T03:50:05;4.43;;;1.60;;
52708;SDS011;38606;52.986;6.980;2022-09-01T03:52:36;3.00;;;1.40;;
52708;SDS011;38606;52.986;6.980;2022-09-01T03:55:04;2.78;;;1.65;;
52708;SDS011;38606;52.986;6.980;2022-09-01T03:57:30;3.83;;;1.50;;
52708;SDS011;38606;52.986;6.980;2022-09-01T03:59:55;3.60;;;1.70;;
52708;SDS011;38606;52.986;6.980;2022-09-01T04:02:22;1.88;;;1.52;;
52708;SDS011;38606;52.986;6.980;2022-09-01T04:04:51;1.55;;;1.30;;
52708;SDS011;38606;52.986;6.980;2022-09-01T04:07:18;2.83;;;1.58;;
52708;SDS011;38606;52.986;6.980;2022-09-01T04:09:43;2.15;;;1.48;;
52708;SDS011;38606;52.986;6.980;2022-09-01T04:12:09;4.07;;;1.55;;
52708;SDS011;38606;52.986;6.980;2022-09-01T04:14:39;1.83;;;1.50;;
52708;SDS011;38606;52.986;6.980;2022-09-01T04:17:05;2.22;;;1.63;;
52708;SDS011;38606;52.986;6.980;2022-09-01T04:19:49;2.75;;;1.40;;
52708;SDS011;38606;52.986;6.980;2022-09-01T04:22:15;2.70;;;1.60;;
52708;SDS011;38606;52.986;6.980;2022-09-01T04:24:41;3.60;;;1.30;;
52708;SDS011;38606;52.986;6.980;2022-09-01T04:27:09;4.55;;;1.50;;
52708;SDS011;38606;52.986;6.980;2022-09-01T04:29:35;5.32;;;1.98;;
52708;SDS011;38606;52.986;6.980;2022-09-01T04:32:05;3.45;;;1.50;;
52708;SDS011;38606;52.986;6.980;2022-09-01T04:34:36;2.08;;;1.42;;
52708;SDS011;38606;52.986;6.980;2022-09-01T04:39:32;1.95;;;1.60;;
52708;SDS011;38606;52.986;6.980;2022-09-01T04:42:00;2.47;;;1.50;;
52708;SDS011;38606;52.986;6.980;2022-09-01T04:44:28;2.47;;;1.50;;
52708;SDS011;38606;52.986;6.980;2022-09-01T04:46:54;3.85;;;1.50;;
52708;SDS011;38606;52.986;6.980;2022-09-01T04:49:20;1.83;;;1.35;;
52708;SDS011;38606;52.986;6.980;2022-09-01T04:51:49;2.10;;;1.90;;
52708;SDS011;38606;52.986;6.980;2022-09-01T04:54:16;2.60;;;1.90;;
52708;SDS011;38606;52.986;6.980;2022-09-01T04:56:43;2.25;;;1.50;;
52708;SDS011;38606;52.986;6.980;2022-09-01T04:59:11;3.00;;;1.73;;
52708;SDS011;38606;52.986;6.980;2022-09-01T05:01:38;2.45;;;1.60;;
52708;SDS011;38606;52.986;6.980;2022-09-01T05:04:08;2.55;;;1.92;;
52708;SDS011;38606;52.986;6.980;2022-09-01T05:06:41;2.10;;;1.58;;
52708;SDS011;38606;52.986;6.980;2022-09-01T05:09:13;4.50;;;2.17;;
52708;SDS011;38606;52.986;6.980;2022-09-01T05:11:41;2.80;;;1.40;;
52708;SDS011;38606;52.986;6.980;2022-09-01T05:14:09;6.75;;;2.03;;
52708;SDS011;38606;52.986;6.980;2022-09-01T05:16:36;1.77;;;1.45;;
52708;SDS011;38606;52.986;6.980;2022-09-01T05:19:05;2.15;;;1.70;;
52708;SDS011;38606;52.986;6.980;2022-09-01T05:21:38;2.08;;;1.40;;
52708;SDS011;38606;52.986;6.980;2022-09-01T05:24:09;3.13;;;1.90;;
52708;SDS011;38606;52.986;6.980;2022-09-01T05:26:36;3.10;;;1.52;;
52708;SDS011;38606;52.986;6.980;2022-09-01T05:29:05;3.00;;;1.85;;
52708;SDS011;38606;52.986;6.980;2022-09-01T05:31:37;3.03;;;1.57;;
52708;SDS011;38606;52.986;6.980;2022-09-01T05:34:04;3.55;;;1.52;;
52708;SDS011;38606;52.986;6.980;2022-09-01T05:36:34;2.72;;;1.83;;
52708;SDS011;38606;52.986;6.980;2022-09-01T05:39:02;5.05;;;1.67;;
52708;SDS011;38606;52.986;6.980;2022-09-01T05:41:30;2.13;;;1.90;;
52708;SDS011;38606;52.986;6.980;2022-09-01T05:43:57;1.90;;;1.70;;
52708;SDS011;38606;52.986;6.980;2022-09-01T05:46:24;1.48;;;1.30;;
52708;SDS011;38606;52.986;6.980;2022-09-01T05:48:52;2.13;;;1.55;;
52708;SDS011;38606;52.986;6.980;2022-09-01T05:51:23;2.30;;;1.58;;
52708;SDS011;38606;52.986;6.980;2022-09-01T05:53:53;5.45;;;1.90;;
52708;SDS011;38606;52.986;6.980;2022-09-01T05:56:23;2.65;;;1.75;;
52708;SDS011;38606;52.986;6.980;2022-09-01T05:58:50;2.25;;;1.80;;
52708;SDS011;38606;52.986;6.980;2022-09-01T06:01:17;2.38;;;1.50;;
52708;SDS011;38606;52.986;6.980;2022-09-01T06:03:50;2.88;;;1.75;;
52708;SDS011;38606;52.986;6.980;2022-09-01T06:06:26;2.53;;;1.70;;
52708;SDS011;38606;52.986;6.980;2022-09-01T06:08:54;3.05;;;1.52;;
52708;SDS011;38606;52.986;6.980;2022-09-01T06:11:23;5.20;;;1.80;;
52708;SDS011;38606;52.986;6.980;2022-09-01T06:13:50;3.15;;;1.65;;
52708;SDS011;38606;52.986;6.980;2022-09-01T06:16:21;2.63;;;1.58;;
52708;SDS011;38606;52.986;6.980;2022-09-01T06:18:48;7.72;;;1.63;;
52708;SDS011;38606;52.986;6.980;2022-09-01T06:21:17;1.50;;;1.40;;
52708;SDS011;38606;52.986;6.980;2022-09-01T06:23:44;4.20;;;1.52;;
52708;SDS011;38606;52.986;6.980;2022-09-01T06:26:17;4.28;;;1.67;;
52708;SDS011;38606;52.986;6.980;2022-09-01T06:28:52;5.47;;;1.80;;
52708;SDS011;38606;52.986;6.980;2022-09-01T06:31:25;2.40;;;1.80;;
52708;SDS011;38606;52.986;6.980;2022-09-01T06:33:54;4.45;;;2.15;;
52708;SDS011;38606;52.986;6.980;2022-09-01T06:36:22;3.65;;;1.73;;
52708;SDS011;38606;52.986;6.980;2022-09-01T06:38:51;2.65;;;1.80;;
52708;SDS011;38606;52.986;6.980;2022-09-01T06:41:19;3.65;;;1.60;;
52708;SDS011;38606;52.986;6.980;2022-09-01T06:43:46;1.95;;;1.80;;
52708;SDS011;38606;52.986;6.980;2022-09-01T06:46:13;3.55;;;1.80;;
52708;SDS011;38606;52.986;6.980;2022-09-01T06:48:40;2.10;;;1.80;;
52708;SDS011;38606;52.986;6.980;2022-09-01T06:51:14;5.07;;;2.03;;
52708;SDS011;38606;52.986;6.980;2022-09-01T06:53:42;2.42;;;2.00;;
52708;SDS011;38606;52.986;6.980;2022-09-01T06:56:09;2.65;;;1.70;;
52708;SDS011;38606;52.986;6.980;2022-09-01T06:58:38;4.43;;;1.80;;
52708;SDS011;38606;52.986;6.980;2022-09-01T07:01:06;2.00;;;1.70;;
52708;SDS011;38606;52.986;6.980;2022-09-01T07:03:40;2.85;;;1.70;;
52708;SDS011;38606;52.986;6.980;2022-09-01T07:06:07;2.95;;;1.55;;
52708;SDS011;38606;52.986;6.980;2022-09-01T07:08:34;2.55;;;1.77;;
52708;SDS011;38606;52.986;6.980;2022-09-01T07:11:07;1.85;;;1.30;;
52708;SDS011;38606;52.986;6.980;2022-09-01T07:13:42;2.88;;;1.52;;
52708;SDS011;38606;52.986;6.980;2022-09-01T07:16:15;4.88;;;2.03;;
52708;SDS011;38606;52.986;6.980;2022-09-01T07:18:46;2.78;;;1.90;;
52708;SDS011;38606;52.986;6.980;2022-09-01T07:21:16;2.45;;;1.50;;
52708;SDS011;38606;52.986;6.980;2022-09-01T07:23:43;3.10;;;1.60;;
52708;SDS011;38606;52.986;6.980;2022-09-01T07:26:10;2.08;;;1.58;;
52708;SDS011;38606;52.986;6.980;2022-09-01T07:28:46;2.08;;;1.63;;
52708;SDS011;38606;52.986;6.980;2022-09-01T07:33:45;3.92;;;1.98;;
52708;SDS011;38606;52.986;6.980;2022-09-01T07:36:15;1.88;;;1.38;;
52708;SDS011;38606;52.986;6.980;2022-09-01T07:38:43;2.03;;;1.50;;
52708;SDS011;38606;52.986;6.980;2022-09-01T07:41:09;4.65;;;1.50;;
52708;SDS011;38606;52.986;6.980;2022-09-01T07:43:39;4.43;;;1.38;;
52708;SDS011;38606;52.986;6.980;2022-09-01T07:46:09;2.67;;;1.70;;
52708;SDS011;38606;52.986;6.980;2022-09-01T07:48:35;2.50;;;1.50;;
52708;SDS011;38606;52.986;6.980;2022-09-01T07:51:02;2.38;;;1.33;;
52708;SDS011;38606;52.986;6.980;2022-09-01T07:53:29;3.95;;;1.27;;
52708;SDS011;38606;52.986;6.980;2022-09-01T07:55:58;3.40;;;1.55;;
52708;SDS011;38606;52.986;6.980;2022-09-01T07:58:31;3.30;;;1.20;;
52708;SDS011;38606;52.986;6.980;2022-09-01T08:00:58;2.70;;;1.38;;
52708;SDS011;38606;52.986;6.980;2022-09-01T08:03:27;4.65;;;1.38;;
52708;SDS011;38606;52.986;6.980;2022-09-01T08:05:54;3.25;;;1.05;;
52708;SDS011;38606;52.986;6.980;2022-09-01T08:08:25;1.92;;;1.27;;
52708;SDS011;38606;52.986;6.980;2022-09-01T08:10:51;3.03;;;1.50;;
52708;SDS011;38606;52.986;6.980;2022-09-01T08:13:17;2.50;;;1.10;;
52708;SDS011;38606;52.986;6.980;2022-09-01T08:15:43;3.13;;;1.27;;
52708;SDS011;38606;52.986;6.980;2022-09-01T08:18:09;1.38;;;1.27;;
52708;SDS011;38606;52.986;6.980;2022-09-01T08:20:37;2.20;;;1.10;;
52708;SDS011;38606;52.986;6.980;2022-09-01T08:23:09;2.25;;;1.10;;
52708;SDS011;38606;52.986;6.980;2022-09-01T08:25:36;1.45;;;1.10;;
52708;SDS011;38606;52.986;6.980;2022-09-01T08:28:03;1.33;;;0.88;;
52708;SDS011;38606;52.986;6.980;2022-09-01T08:30:29;3.53;;;1.20;;
52708;SDS011;38606;52.986;6.980;2022-09-01T08:32:56;1.75;;;1.02;;
52708;SDS011;38606;52.986;6.980;2022-09-01T08:35:23;1.63;;;1.10;;
52708;SDS011;38606;52.986;6.980;2022-09-01T08:37:49;1.30;;;0.90;;
52708;SDS011;38606;52.986;6.980;2022-09-01T08:40:16;2.00;;;1.05;;
52708;SDS011;38606;52.986;6.980;2022-09-01T08:45:54;1.73;;;0.70;;
52708;SDS011;38606;52.986;6.980;2022-09-01T08:48:39;1.85;;;1.00;;
52708;SDS011;38606;52.986;6.980;2022-09-01T08:51:52;2.45;;;1.00;;
52708;SDS011;38606;52.986;6.980;2022-09-01T08:56:53;2.53;;;0.90;;
52708;SDS011;38606;52.986;6.980;2022-09-01T09:02:12;1.25;;;0.73;;
52708;SDS011;38606;52.986;6.980;2022-09-01T09:07:57;3.38;;;0.77;;
52708;SDS011;38606;52.986;6.980;2022-09-01T09:10:57;2.30;;;0.70;;
52708;SDS011;38606;52.986;6.980;2022-09-01T09:16:26;2.00;;;0.65;;
52708;SDS011;38606;52.986;6.980;2022-09-01T09:19:18;1.05;;;0.70;;
52708;SDS011;38606;52.986;6.980;2022-09-01T09:21:50;0.88;;;0.80;;
52708;SDS011;38606;52.986;6.980;2022-09-01T09:27:19;2.90;;;0.60;;
52708;SDS011;38606;52.986;6.980;2022-09-01T09:30:04;1.48;;;0.50;;
52708;SDS011;38606;52.986;6.980;2022-09-01T09:32:44;0.88;;;0.60;;
52708;SDS011;38606;52.986;6.980;2022-09-01T09:37:51;1.38;;;0.65;;
52708;SDS011;38606;52.986;6.980;2022-09-01T09:45:29;1.33;;;0.70;;
52708;SDS011;38606;52.986;6.980;2022-09-01T09:47:57;3.53;;;0.70;;
52708;SDS011;38606;52.986;6.980;2022-09-01T09:56:03;1.48;;;0.50;;
52708;SDS011;38606;52.986;6.980;2022-09-01T09:58:45;0.40;;;0.40;;
52708;SDS011;38606;52.986;6.980;2022-09-01T10:01:13;1.27;;;0.60;;
52708;SDS011;38606;52.986;6.980;2022-09-01T10:03:49;1.83;;;0.50;;
52708;SDS011;38606;52.986;6.980;2022-09-01T10:08:54;0.70;;;0.70;;
52708;SDS011;38606;52.986;6.980;2022-09-01T10:11:27;2.05;;;0.60;;
52708;SDS011;38606;52.986;6.980;2022-09-01T10:13:59;1.70;;;0.43;;
52708;SDS011;38606;52.986;6.980;2022-09-01T10:16:27;1.92;;;0.55;;
52708;SDS011;38606;52.986;6.980;2022-09-01T10:18:56;1.58;;;0.50;;
52708;SDS011;38606;52.986;6.980;2022-09-01T10:24:06;1.95;;;0.70;;
52708;SDS011;38606;52.986;6.980;2022-09-01T10:26:38;2.45;;;0.63;;
52708;SDS011;38606;52.986;6.980;2022-09-01T10:29:09;0.70;;;0.50;;
52708;SDS011;38606;52.986;6.980;2022-09-01T10:34:06;2.75;;;0.60;;
52708;SDS011;38606;52.986;6.980;2022-09-01T10:36:38;0.93;;;0.50;;
52708;SDS011;38606;52.986;6.980;2022-09-01T10:39:09;1.85;;;0.70;;
52708;SDS011;38606;52.986;6.980;2022-09-01T10:44:32;0.63;;;0.43;;
52708;SDS011;38606;52.986;6.980;2022-09-01T10:49:55;0.52;;;0.40;;
52708;SDS011;38606;52.986;6.980;2022-09-01T10:55:15;1.05;;;0.50;;
52708;SDS011;38606;52.986;6.980;2022-09-01T11:08:21;2.03;;;0.50;;
52708;SDS011;38606;52.986;6.980;2022-09-01T11:11:25;4.28;;;0.50;;
52708;SDS011;38606;52.986;6.980;2022-09-01T11:14:04;1.95;;;0.68;;
52708;SDS011;38606;52.986;6.980;2022-09-01T11:20:04;1.75;;;0.63;;
52708;SDS011;38606;52.986;6.980;2022-09-01T11:22:38;1.13;;;0.60;;
52708;SDS011;38606;52.986;6.980;2022-09-01T11:27:57;1.52;;;0.52;;
52708;SDS011;38606;52.986;6.980;2022-09-01T11:30:39;2.35;;;0.60;;
52708;SDS011;38606;52.986;6.980;2022-09-01T11:36:44;0.50;;;0.50;;
52708;SDS011;38606;52.986;6.980;2022-09-01T11:44:10;2.97;;;0.80;;
52708;SDS011;38606;52.986;6.980;2022-09-01T11:46:39;1.60;;;0.70;;
52708;SDS011;38606;52.986;6.980;2022-09-01T11:49:31;1.13;;;0.60;;
52708;SDS011;38606;52.986;6.980;2022-09-01T11:51:57;1.55;;;0.60;;
52708;SDS011;38606;52.986;6.980;2022-09-01T11:54:24;3.25;;;0.73;;
52708;SDS011;38606;52.986;6.980;2022-09-01T11:56:52;2.25;;;0.57;;
52708;SDS011;38606;52.986;6.980;2022-09-01T11:59:34;0.70;;;0.50;;
52708;SDS011;38606;52.986;6.980;2022-09-01T12:04:34;3.90;;;0.60;;
52708;SDS011;38606;52.986;6.980;2022-09-01T12:07:06;0.88;;;0.52;;
52708;SDS011;38606;52.986;6.980;2022-09-01T12:09:41;0.82;;;0.40;;
52708;SDS011;38606;52.986;6.980;2022-09-01T12:15:03;3.53;;;0.50;;
52708;SDS011;38606;52.986;6.980;2022-09-01T12:17:40;1.40;;;0.70;;
52708;SDS011;38606;52.986;6.980;2022-09-01T12:22:51;1.67;;;0.70;;
52708;SDS011;38606;52.986;6.980;2022-09-01T12:25:21;1.02;;;0.57;;
52708;SDS011;38606;52.986;6.980;2022-09-01T12:27:49;2.22;;;0.47;;
52708;SDS011;38606;52.986;6.980;2022-09-01T12:30:16;3.25;;;0.90;;
52708;SDS011;38606;52.986;6.980;2022-09-01T12:32:43;1.88;;;0.40;;
52708;SDS011;38606;52.986;6.980;2022-09-01T12:35:13;2.45;;;0.50;;
52708;SDS011;38606;52.986;6.980;2022-09-01T12:37:43;0.95;;;0.50;;
52708;SDS011;38606;52.986;6.980;2022-09-01T12:42:50;1.17;;;0.50;;
52708;SDS011;38606;52.986;6.980;2022-09-01T12:45:34;2.78;;;0.57;;
52708;SDS011;38606;52.986;6.980;2022-09-01T12:48:27;3.13;;;0.50;;
52708;SDS011;38606;52.986;6.980;2022-09-01T12:53:52;2.17;;;0.38;;
52708;SDS011;38606;52.986;6.980;2022-09-01T12:56:33;1.23;;;0.75;;
52708;SDS011;38606;52.986;6.980;2022-09-01T12:59:13;1.05;;;0.55;;
52708;SDS011;38606;52.986;6.980;2022-09-01T13:01:44;3.10;;;0.70;;
52708;SDS011;38606;52.986;6.980;2022-09-01T13:06:37;2.60;;;0.88;;
52708;SDS011;38606;52.986;6.980;2022-09-01T13:09:03;1.05;;;0.52;;
52708;SDS011;38606;52.986;6.980;2022-09-01T13:11:29;2.33;;;0.40;;
52708;SDS011;38606;52.986;6.980;2022-09-01T13:13:55;3.05;;;0.60;;
52708;SDS011;38606;52.986;6.980;2022-09-01T13:16:21;0.45;;;0.38;;
52708;SDS011;38606;52.986;6.980;2022-09-01T13:18:47;2.20;;;0.50;;
52708;SDS011;38606;52.986;6.980;2022-09-01T13:21:13;2.63;;;0.47;;
52708;SDS011;38606;52.986;6.980;2022-09-01T13:23:39;0.60;;;0.40;;
52708;SDS011;38606;52.986;6.980;2022-09-01T13:26:05;1.67;;;0.60;;
52708;SDS011;38606;52.986;6.980;2022-09-01T13:28:31;2.42;;;0.60;;
52708;SDS011;38606;52.986;6.980;2022-09-01T13:31:01;2.17;;;0.50;;
52708;SDS011;38606;52.986;6.980;2022-09-01T13:33:29;2.40;;;0.65;;
52708;SDS011;38606;52.986;6.980;2022-09-01T13:35:56;1.67;;;0.68;;
52708;SDS011;38606;52.986;6.980;2022-09-01T13:38:22;3.13;;;0.60;;
52708;SDS011;38606;52.986;6.980;2022-09-01T13:40:48;2.05;;;0.40;;
52708;SDS011;38606;52.986;6.980;2022-09-01T13:43:16;2.45;;;0.45;;
52708;SDS011;38606;52.986;6.980;2022-09-01T13:45:45;1.02;;;0.40;;
52708;SDS011;38606;52.986;6.980;2022-09-01T13:48:11;3.53;;;0.45;;
52708;SDS011;38606;52.986;6.980;2022-09-01T13:50:37;0.90;;;0.40;;
52708;SDS011;38606;52.986;6.980;2022-09-01T13:53:03;1.40;;;0.40;;
52708;SDS011;38606;52.986;6.980;2022-09-01T13:55:31;1.65;;;0.43;;
52708;SDS011;38606;52.986;6.980;2022-09-01T13:57:58;1.40;;;0.50;;
52708;SDS011;38606;52.986;6.980;2022-09-01T14:00:29;2.03;;;0.50;;
52708;SDS011;38606;52.986;6.980;2022-09-01T14:03:02;1.98;;;0.57;;
52708;SDS011;38606;52.986;6.980;2022-09-01T14:05:33;1.08;;;0.40;;
52708;SDS011;38606;52.986;6.980;2022-09-01T14:08:02;1.95;;;0.52;;
52708;SDS011;38606;52.986;6.980;2022-09-01T14:10:29;1.00;;;0.50;;
52708;SDS011;38606;52.986;6.980;2022-09-01T14:12:59;1.95;;;0.45;;
52708;SDS011;38606;52.986;6.980;2022-09-01T14:15:25;0.85;;;0.50;;
52708;SDS011;38606;52.986;6.980;2022-09-01T14:17:52;2.05;;;0.50;;
52708;SDS011;38606;52.986;6.980;2022-09-01T14:20:21;3.63;;;0.40;;
52708;SDS011;38606;52.986;6.980;2022-09-01T14:22:49;3.40;;;0.50;;
52708;SDS011;38606;52.986;6.980;2022-09-01T14:25:16;1.85;;;0.43;;
52708;SDS011;38606;52.986;6.980;2022-09-01T14:27:43;0.40;;;0.40;;
52708;SDS011;38606;52.986;6.980;2022-09-01T14:30:11;3.33;;;0.60;;
52708;SDS011;38606;52.986;6.980;2022-09-01T14:32:39;2.50;;;0.75;;
52708;SDS011;38606;52.986;6.980;2022-09-01T14:35:05;7.05;;;1.05;;
52708;SDS011;38606;52.986;6.980;2022-09-01T14:37:32;4.47;;;0.63;;
52708;SDS011;38606;52.986;6.980;2022-09-01T14:39:58;1.42;;;0.60;;
52708;SDS011;38606;52.986;6.980;2022-09-01T14:42:24;0.50;;;0.38;;
52708;SDS011;38606;52.986;6.980;2022-09-01T14:44:53;1.65;;;0.60;;
52708;SDS011;38606;52.986;6.980;2022-09-01T14:47:20;3.00;;;0.60;;
52708;SDS011;38606;52.986;6.980;2022-09-01T14:49:49;1.95;;;0.40;;
52708;SDS011;38606;52.986;6.980;2022-09-01T14:52:15;4.00;;;0.60;;
52708;SDS011;38606;52.986;6.980;2022-09-01T14:54:42;0.75;;;0.35;;
52708;SDS011;38606;52.986;6.980;2022-09-01T14:57:08;1.17;;;0.40;;
52708;SDS011;38606;52.986;6.980;2022-09-01T14:59:35;3.13;;;0.50;;
52708;SDS011;38606;52.986;6.980;2022-09-01T15:02:01;1.23;;;0.43;;
52708;SDS011;38606;52.986;6.980;2022-09-01T15:04:27;3.55;;;0.30;;
52708;SDS011;38606;52.986;6.980;2022-09-01T15:06:53;0.90;;;0.43;;
52708;SDS011;38606;52.986;6.980;2022-09-01T15:09:19;3.50;;;0.93;;
52708;SDS011;38606;52.986;6.980;2022-09-01T15:11:45;1.05;;;0.50;;
52708;SDS011;38606;52.986;6.980;2022-09-01T15:14:11;4.05;;;0.57;;
52708;SDS011;38606;52.986;6.980;2022-09-01T15:16:37;3.00;;;0.50;;
52708;SDS011;38606;52.986;6.980;2022-09-01T15:19:05;1.55;;;0.50;;
52708;SDS011;38606;52.986;6.980;2022-09-01T15:21:33;1.60;;;0.40;;
52708;SDS011;38606;52.986;6.980;2022-09-01T15:24:00;2.25;;;0.40;;
52708;SDS011;38606;52.986;6.980;2022-09-01T15:26:27;0.50;;;0.50;;
52708;SDS011;38606;52.986;6.980;2022-09-01T15:28:53;3.45;;;0.60;;
52708;SDS011;38606;52.986;6.980;2022-09-01T15:31:21;2.88;;;0.90;;
52708;SDS011;38606;52.986;6.980;2022-09-01T15:33:48;1.98;;;0.47;;
52708;SDS011;38606;52.986;6.980;2022-09-01T15:36:18;5.32;;;0.60;;
52708;SDS011;38606;52.986;6.980;2022-09-01T15:38:46;1.90;;;0.52;;
52708;SDS011;38606;52.986;6.980;2022-09-01T15:41:19;3.05;;;0.52;;
52708;SDS011;38606;52.986;6.980;2022-09-01T15:43:49;3.15;;;0.70;;
52708;SDS011;38606;52.986;6.980;2022-09-01T15:46:15;1.60;;;0.52;;
52708;SDS011;38606;52.986;6.980;2022-09-01T15:48:42;0.80;;;0.47;;
52708;SDS011;38606;52.986;6.980;2022-09-01T15:53:46;1.90;;;0.50;;
52708;SDS011;38606;52.986;6.980;2022-09-01T15:56:13;2.55;;;0.40;;
52708;SDS011;38606;52.986;6.980;2022-09-01T15:58:42;2.75;;;0.40;;
52708;SDS011;38606;52.986;6.980;2022-09-01T16:01:08;3.25;;;0.50;;
52708;SDS011;38606;52.986;6.980;2022-09-01T16:03:34;1.77;;;0.60;;
52708;SDS011;38606;52.986;6.980;2022-09-01T16:06:00;2.60;;;0.50;;
52708;SDS011;38606;52.986;6.980;2022-09-01T16:08:26;2.90;;;0.60;;
52708;SDS011;38606;52.986;6.980;2022-09-01T16:10:52;0.43;;;0.40;;
52708;SDS011;38606;52.986;6.980;2022-09-01T16:13:19;4.38;;;0.60;;
52708;SDS011;38606;52.986;6.980;2022-09-01T16:15:47;1.17;;;0.30;;
52708;SDS011;38606;52.986;6.980;2022-09-01T16:21:13;1.95;;;0.30;;
52708;SDS011;38606;52.986;6.980;2022-09-01T16:23:49;2.67;;;0.70;;
52708;SDS011;38606;52.986;6.980;2022-09-01T16:26:16;2.15;;;0.47;;
52708;SDS011;38606;52.986;6.980;2022-09-01T16:28:54;3.15;;;0.47;;
52708;SDS011;38606;52.986;6.980;2022-09-01T16:31:23;0.45;;;0.30;;
52708;SDS011;38606;52.986;6.980;2022-09-01T16:33:53;2.65;;;0.43;;
52708;SDS011;38606;52.986;6.980;2022-09-01T16:36:35;0.50;;;0.43;;
52708;SDS011;38606;52.986;6.980;2022-09-01T16:41:43;4.90;;;0.47;;
52708;SDS011;38606;52.986;6.980;2022-09-01T16:44:38;3.38;;;0.40;;
52708;SDS011;38606;52.986;6.980;2022-09-01T16:50:03;1.98;;;0.50;;
52708;SDS011;38606;52.986;6.980;2022-09-01T16:55:13;1.27;;;0.60;;